Latest Coastal Weather Observations for Townsville

IDQ60701

Issued at 5:13 pm EST Wednesday 8 February 2023 (issued every 10 minutes, with the page automatically refreshed every 10 minutes)

About coastal observations | Map of coastal stations | Coastal observations for QLD | Marine services | Other Formats
Station Details ID: 032040 Name: TOWNSVILLE AERO Lat: -19.25 Lon: 146.77 Height: 4.34 m
Data from the previous 72 hours. | See also: Recent months at Townsville
Date/Time
EST
Wind Sea
Height
m
Swell Vis
km
Cloud Weather Temp
°C
Press
MSL
hPa
Rain since
9am
mm
Dir  Spd
kts
Gust
kts
Height
m
Period
s
Dir
08/05:00pm ENE 11 15 - - - - 10 Mostly clear - 31.1 1001.3 0.0
08/04:30pm ENE 12 16 - - - - 10 Mostly clear - 30.5 1001.5 0.0
08/04:00pm ENE 14 18 - - - - 10 Mostly clear - 31.9 1001.4 0.0
08/03:30pm ENE 11 18 - - - - 10 Mostly clear - 31.7 1001.6 0.0
08/03:00pm E 12 16 - - - - 10 Partly cloudy - 32.5 1001.9 0.0
08/02:30pm ESE 11 16 - - - - 10 Mostly clear - 32.0 1002.2 0.0
08/02:00pm SE 11 17 - - - - 10 Mostly clear - 32.3 1002.5 0.0
08/01:30pm ESE 9 15 - - - - 10 Partly cloudy - 31.8 1003.1 0.0
08/01:00pm S 8 13 - - - - 10 Mostly clear - 32.1 1003.5 0.0
08/12:30pm SE 9 18 - - - - 10 Mostly clear - 31.6 1003.9 0.0
08/12:00pm SSE 10 16 - - - - 10 Cloudy - 31.2 1004.3 0.0
08/11:30am ESE 13 18 - - - - 10 Mostly clear - 31.7 1004.8 0.0
08/11:00am SE 9 14 - - - - 10 Mostly clear - 30.6 1005.1 0.0
08/10:30am SSE 11 15 - - - - 10 Mostly clear - 31.0 1005.2 0.0
08/10:00am SSE 8 12 - - - - 10 Mostly clear - 30.5 1005.7 0.0
08/09:30am S 8 11 - - - - 10 Cloudy - 29.9 1005.9 0.0
08/09:00am SSE 9 12 - - - - 10 Partly cloudy - 29.8 1006.2 11.0
08/08:30am SSE 9 13 - - - - 10 Mostly clear - 29.4 1005.9 11.0
08/08:00am SSE 9 18 - - - - 10 Mostly clear - 28.7 1005.9 11.0
08/07:30am S 7 8 - - - - 10 Mostly clear - 28.3 1005.8 11.0
08/07:00am SSE 6 8 - - - - 10 Mostly clear - 27.7 1005.6 11.0
08/06:30am S 6 7 - - - - 10 Cloudy - 26.8 1005.3 11.0
08/06:00am SSW 4 5 - - - - 10 Cloudy - 26.4 1004.8 11.0
08/05:30am SSW 6 8 - - - - 10 Partly cloudy - 26.6 1004.5 11.0
08/05:00am SSW 5 5 - - - - 10 Partly cloudy - 26.6 1004.4 11.0
08/04:30am SE 4 5 - - - - 10 Partly cloudy - 26.2 1004.4 11.0
08/04:00am S 6 8 - - - - 10 Partly cloudy - 26.4 1004.4 11.0
08/03:30am SE 9 13 - - - - 10 Partly cloudy - 26.4 1004.6 11.0
08/03:00am SSE 8 12 - - - - 10 Cloudy - 27.1 1004.7 11.0
08/02:30am SE 9 11 - - - - 10 Partly cloudy - 27.2 1004.9 11.0
08/02:00am SSE 8 11 - - - - 10 Partly cloudy - 27.1 1005.1 11.0
08/01:30am SE 7 10 - - - - 10 Partly cloudy - 26.8 1005.6 11.0
08/01:00am SE 5 8 - - - - 10 Partly cloudy - 26.7 1006.0 11.0
08/12:30am SSE 7 10 - - - - 10 Partly cloudy - 26.7 1006.2 11.0
08/12:00am SSE 7 9 - - - - 10 - - 26.8 1006.7 11.0
 
Date/Time
EST
Wind Sea
Height
m
Swell Vis
km
Cloud Weather Temp
°C
Press
MSL
hPa
Rain since
9am
mm
Dir  Spd
kts
Gust
kts
Height
m
Period
s
Dir
07/11:30pm SSE 6 7 - - - - 10 - - 26.7 1007.1 11.0
07/11:00pm SE 6 7 - - - - 10 - - 26.9 1007.3 11.0
07/10:30pm SE 4 6 - - - - 10 Partly cloudy - 27.0 1007.5 11.0
07/10:00pm SE 5 8 - - - - 10 Partly cloudy - 27.1 1007.4 11.0
07/09:30pm SE 5 6 - - - - 10 Mostly clear - 27.1 1007.2 11.0
07/09:00pm SSW 5 6 - - - - 10 Cloudy - 27.5 1007.2 11.0
07/08:30pm SSE 4 5 - - - - 10 Mostly clear - 26.8 1006.9 11.0
07/08:00pm ESE 5 7 - - - - 10 Mostly clear - 27.0 1006.6 11.0
07/07:30pm SSE 5 7 - - - - 10 Mostly clear - 26.8 1006.3 11.0
07/07:00pm SE 4 5 - - - - 10 Mostly clear - 26.8 1005.9 11.0
07/06:30pm SE 7 9 - - - - 10 Mostly clear - 26.5 1005.5 11.0
07/06:16pm SE 8 11 - - - - 10 Mostly clear Showers 26.5 1005.6 10.8
07/06:04pm SE 9 16 - - - - 4 Mostly clear Showers 26.7 1005.5 9.8
07/06:00pm SE 10 20 - - - - 1 Cloudy Showers 26.6 1005.5 9.6
07/05:50pm SSW 7 10 - - - - 4 Mostly clear Showers 27.9 1005.4 0.6
07/05:30pm S 6 9 - - - - 10 Mostly clear - 28.2 1004.9 0.4
07/05:00pm SSW 9 14 - - - - 10 Mostly clear - 29.4 1005.0 0.2
07/04:30pm SW 11 14 - - - - 10 Partly cloudy - 29.5 1005.0 0.2
07/04:00pm SW 6 9 - - - - 10 Mostly clear - 29.6 1005.2 0.2
07/03:30pm SSE 8 12 - - - - 10 Mostly clear - 28.1 1005.4 0.2
07/03:00pm SE 7 9 - - - - 10 Cloudy - 28.7 1005.5 0.2
07/02:30pm ESE 10 15 - - - - 10 Mostly clear - 28.5 1005.8 0.2
07/02:00pm ESE 16 22 - - - - 9 Mostly clear - 27.9 1006.0 0.2
07/01:30pm E 19 27 - - - - 10 Mostly clear - 30.0 1006.1 0.2
07/01:12pm E 17 24 - - - - 10 Mostly clear - 30.1 1006.2 0.2
07/01:00pm ESE 9 14 - - - - 10 Mostly clear - 31.6 1006.0 0.2
07/12:30pm S 2 6 - - - - 10 Mostly clear - 32.5 1006.4 0.2
07/12:00pm ESE 8 12 - - - - 10 Cloudy - 32.8 1006.8 0.2
07/11:30am E 8 10 - - - - 10 Partly cloudy - 31.8 1007.4 0.2
07/11:00am SSE 8 14 - - - - 10 Partly cloudy - 31.9 1007.7 0.2
07/10:30am ESE 8 12 - - - - 10 Partly cloudy - 31.6 1008.0 0.2
07/10:00am SE 8 13 - - - - 10 Partly cloudy - 31.5 1008.1 0.2
07/09:30am ESE 9 15 - - - - 10 Partly cloudy - 30.7 1008.2 0.2
07/09:00am SSE 8 11 - - - - 10 Mostly clear - 30.1 1008.4 2.2
07/08:30am SE 8 11 - - - - 10 Mostly clear - 29.9 1008.3 2.2
07/08:00am SSE 3 6 - - - - 10 Mostly clear - 29.3 1008.1 2.2
07/07:30am SSW 4 6 - - - - 10 Mostly clear - 28.4 1008.0 2.2
07/07:00am S 5 6 - - - - 10 Mostly clear - 27.2 1007.8 2.2
07/06:30am SE 6 8 - - - - 10 Partly cloudy - 26.2 1007.4 2.2
07/06:00am SE 4 5 - - - - 10 Mostly clear - 25.7 1007.2 2.2
07/05:30am SE 6 8 - - - - 10 Partly cloudy - 26.0 1006.7 2.2
07/05:00am SSE 5 7 - - - - 10 Partly cloudy - 25.9 1006.9 2.2
07/04:30am SSE 5 6 - - - - 10 Partly cloudy - 26.1 1006.6 2.2
07/04:00am SE 4 4 - - - - 10 - - 26.1 1006.8 2.2
07/03:30am SSW 3 4 - - - - 10 - - 26.4 1006.8 2.2
07/03:00am SSW 4 5 - - - - 10 Partly cloudy - 26.5 1006.7 2.2
07/02:30am W 3 4 - - - - 10 - - 26.6 1006.8 2.2
07/02:00am W 4 5 - - - - 10 Partly cloudy - 26.7 1007.1 2.2
07/01:30am CALM 0 3 - - - - 10 Partly cloudy - 26.7 1007.6 2.2
07/01:00am SE 5 6 - - - - 10 - - 26.8 1007.8 2.2
07/12:30am ESE 6 7 - - - - 10 Partly cloudy - 26.9 1008.2 2.2
07/12:00am SSE 5 5 - - - - 10 Partly cloudy - 26.9 1008.4 2.2
 
Date/Time
EST
Wind Sea
Height
m
Swell Vis
km
Cloud Weather Temp
°C
Press
MSL
hPa
Rain since
9am
mm
Dir  Spd
kts
Gust
kts
Height
m
Period
s
Dir
06/11:30pm SSE 5 5 - - - - 10 - - 26.7 1008.8 2.2
06/11:00pm SSE 4 5 - - - - 10 Partly cloudy - 26.8 1009.0 2.2
06/10:30pm SSE 5 6 - - - - 10 Partly cloudy - 26.4 1009.1 2.2
06/10:29pm SSE 5 7 - - - - 10 Partly cloudy - 26.5 1009.1 2.2
06/10:07pm SE 9 16 - - - - 6 Partly cloudy - 27.3 1009.3 0.6
06/10:00pm SE 5 7 - - - - 10 Partly cloudy - 28.2 1009.2 0.0
06/09:30pm ESE 5 6 - - - - 10 Partly cloudy - 28.4 1009.3 0.0
06/09:00pm E 5 7 - - - - 10 Mostly cloudy - 28.3 1009.1 0.0
06/08:30pm E 9 14 - - - - 10 Partly cloudy - 28.4 1008.7 0.0
06/08:00pm E 9 12 - - - - 10 Partly cloudy - 28.3 1008.4 0.0
06/07:30pm ESE 11 14 - - - - 10 - - 28.6 1008.0 0.0
06/07:00pm E 12 15 - - - - 10 - - 28.7 1007.6 0.0
06/06:30pm ESE 9 12 - - - - 10 Partly cloudy - 29.2 1007.1 0.0
06/06:00pm E 9 13 - - - - 10 Partly cloudy - 29.8 1006.9 0.0
06/05:30pm E 10 13 - - - - 10 Partly cloudy - 30.3 1006.9 0.0
06/05:00pm E 12 16 - - - - 10 Partly cloudy - 30.3 1007.0 0.0
06/04:30pm ENE 12 16 - - - - 10 Partly cloudy - 30.4 1007.1 0.0
06/04:00pm E 13 17 - - - - 10 Mostly clear - 30.7 1007.2 0.0
06/03:30pm E 14 20 - - - - 10 Partly cloudy - 30.6 1007.3 0.0
06/03:00pm ENE 12 17 - - - - 10 Partly cloudy - 31.9 1007.3 0.0
06/02:30pm ENE 14 19 - - - - 10 Partly cloudy - 30.6 1007.2 0.0
06/02:00pm ENE 14 17 - - - - 10 Partly cloudy - 31.0 1007.5 0.0
06/01:30pm ENE 14 19 - - - - 10 Partly cloudy - 31.3 1007.8 0.0
06/01:00pm E 13 16 - - - - 10 Mostly clear - 31.0 1008.1 0.0
06/12:30pm E 10 14 - - - - 10 Partly cloudy - 31.0 1008.4 0.0
06/12:00pm E 11 16 - - - - 10 Partly cloudy - 30.9 1008.8 0.0
06/11:30am ESE 10 14 - - - - 10 Partly cloudy - 30.6 1009.2 0.0
06/11:00am ESE 11 15 - - - - 10 Mostly clear - 31.0 1009.6 0.0
06/10:30am ESE 12 18 - - - - 10 Partly cloudy - 30.7 1009.7 0.0
06/10:00am ESE 14 18 - - - - 10 Partly cloudy - 30.0 1009.5 0.0
06/09:30am ESE 13 16 - - - - 10 - - 30.2 1009.5 0.0
06/09:00am ESE 14 19 - - - - 10 Mostly clear - 29.6 1009.7 81.2
06/08:30am ESE 10 14 - - - - 10 Mostly clear - 28.7 1009.5 81.2
06/08:00am SE 7 8 - - - - 10 Mostly clear - 27.5 1009.6 81.2
06/07:30am W 5 6 - - - - 10 Mostly clear - 26.6 1009.8 81.2
06/07:00am WNW 5 6 - - - - 10 Partly cloudy - 25.5 1009.6 81.2
06/06:30am WSW 4 5 - - - - 10 Partly cloudy - 25.1 1009.5 81.2
06/06:00am W 8 9 - - - - 10 Cloudy - 25.0 1009.2 81.2
06/05:30am W 7 9 - - - - 10 Partly cloudy - 25.0 1009.0 81.2
06/05:00am WSW 6 8 - - - - 10 Partly cloudy - 25.0 1008.3 81.2
06/04:31am SSW 1 5 - - - - 10 Partly cloudy - 25.2 1008.0 81.0
06/04:30am SSW 2 6 - - - - 10 Partly cloudy - 25.3 1008.0 81.0
06/04:00am N 3 6 - - - - 4 Partly cloudy - 25.4 1007.9 79.2
06/03:30am SW 9 11 - - - - 5 Partly cloudy - 25.1 1007.8 74.6
06/03:17am SW 4 6 - - - - 6 Partly cloudy - 25.0 1008.0 72.6
06/03:13am SW 4 5 - - - - 10 Partly cloudy - 25.1 1007.8 72.0
06/03:00am SW 6 8 - - - - 2 Cloudy Thunderstorm 25.0 1007.9 71.4
06/02:49am S 7 9 - - - - 6 Partly cloudy - 25.1 1007.9 67.4
06/02:36am S 6 7 - - - - 10 Partly cloudy - 25.0 1007.8 65.2
06/02:30am S 6 7 - - - - 10 Partly cloudy - 25.0 1007.7 65.2
06/02:00am W 5 8 - - - - 1 Partly cloudy - 25.0 1008.1 60.2
06/01:53am ESE 6 8 - - - - 3 Partly cloudy - 24.9 1008.4 58.2
06/01:44am SW 4 7 - - - - 10 Partly cloudy - 25.0 1008.5 54.6
06/01:30am S 8 10 - - - - 6 Partly cloudy - 24.7 1008.5 54.4
06/01:25am S 9 11 - - - - 5 Partly cloudy - 24.7 1008.5 53.8
06/01:00am E 13 21 - - - - 0.5 Partly cloudy - 25.2 1009.1 48.2
06/12:42am NNW 9 15 - - - - 2 Partly cloudy - 25.4 1008.9 24.0
06/12:30am NNE 8 13 - - - - 7 Partly cloudy - 25.8 1008.6 19.0
06/12:11am WNW 12 18 - - - - 2 Partly cloudy - 26.3 1008.8 17.2
06/12:00am WNW 7 9 - - - - 2 Cloudy Thunderstorm 26.1 1009.1 12.6
 
Date/Time
EST
Wind Sea
Height
m
Swell Vis
km
Cloud Weather Temp
°C
Press
MSL
hPa
Rain since
9am
mm
Dir  Spd
kts
Gust
kts
Height
m
Period
s
Dir
05/11:47pm W 6 9 - - - - 4 Partly cloudy - 26.3 1009.3 8.0
05/11:34pm W 6 9 - - - - 10 Partly cloudy - 26.1 1008.8 6.2
05/11:30pm W 7 10 - - - - 10 Partly cloudy - 26.2 1008.8 6.2
05/11:26pm WNW 8 10 - - - - 10 Partly cloudy - 26.2 1009.0 6.2
05/11:16pm WNW 9 12 - - - - 10 Partly cloudy - 26.3 1009.1 6.2
05/11:01pm WSW 5 8 - - - - 10 Partly cloudy - 26.4 1009.0 6.2
05/11:00pm SW 4 8 - - - - 10 Partly cloudy - 26.5 1009.0 6.2
05/10:50pm SSE 8 14 - - - - 10 Partly cloudy - 27.2 1009.0 6.2
05/10:34pm NE 5 13 - - - - 10 Partly cloudy - 27.2 1009.0 5.8
05/10:30pm N 1 5 - - - - 10 Partly cloudy - 26.9 1009.0 5.8
05/10:29pm N 1 5 - - - - 10 Partly cloudy - 26.9 1008.9 5.8
05/10:18pm CALM 0 0 - - - - 10 Partly cloudy - 26.7 1008.7 5.8
05/10:02pm CALM 0 4 - - - - 10 Partly cloudy - 26.5 1008.6 5.8
05/10:00pm N 1 5 - - - - 10 Partly cloudy - 26.6 1008.6 5.8
05/09:36pm ENE 8 13 - - - - 6 Partly cloudy - 26.8 1008.7 3.0
05/09:30pm E 7 13 - - - - 10 Partly cloudy - 27.3 1008.7 2.2
05/09:00pm SE 6 7 - - - - 10 Partly cloudy Rain 27.8 1008.2 1.8
05/08:30pm SSE 5 6 - - - - 10 Partly cloudy - 27.7 1007.7 1.4
05/08:29pm SSE 5 6 - - - - 10 Partly cloudy - 27.7 1007.7 1.4
05/08:12pm SE 6 8 - - - - 5 Partly cloudy - 27.8 1007.7 1.2
05/08:00pm E 5 7 - - - - 10 Partly cloudy - 27.8 1007.7 0.2
05/07:30pm E 6 7 - - - - 10 Partly cloudy - 27.5 1007.3 0.2
05/07:09pm ENE 7 9 - - - - 10 Partly cloudy - 27.5 1007.0 0.2
05/07:00pm ESE 10 14 - - - - 10 Partly cloudy - 27.7 1006.9 0.2
05/06:51pm ESE 10 15 - - - - 10 Partly cloudy - 28.4 1006.7 0.0
05/06:30pm ENE 10 13 - - - - 10 Partly cloudy - 29.3 1006.4 0.0
05/06:14pm ENE 11 14 - - - - 10 Partly cloudy - 29.5 1006.3 0.0
05/06:01pm ENE 11 15 - - - - 10 Partly cloudy - 29.5 1005.9 0.0
05/06:00pm ENE 10 15 - - - - 10 Cloudy - 29.5 1005.9 0.0
05/05:45pm ENE 10 14 - - - - 10 Partly cloudy - 29.7 1005.8 0.0
05/05:30pm ENE 11 15 - - - - 10 Partly cloudy - 29.9 1005.6 0.0

Other formats

Comma delimited format used in spreadsheet applications
http://www.bom.gov.au/fwo/IDQ60701/IDQ60701.94294.axf

JavaScript Object Notation format (JSON) in row-major order
http://www.bom.gov.au/fwo/IDQ60701/IDQ60701.94294.json

Data quality

Most of these data are generated automatically and are frequently updated. Quality checks on data are not normally performed. It is possible for incorrect values to appear. Refer to information at About Latest Weather Observations and please check the disclaimer before using these data.